Time;durP1;ratioP1;P1;durP2;ratioP2;P2;SDS_P1;SDS_P2;PMS_P1;PMS_P2;Temp;Humidity;BMP_temperature;BMP_pressure;BME280_temperature;BME280_humidity;BME280_pressure;Samples;Min_cycle;Max_cycle;Signal;HPM_P1;HPM_P2
2023/06/24 00:01:13;;;;;;;3.95;1.30;;;;;;;19.65;nan;100442.00;5036531;28;20037;-73
2023/06/24 00:03:38;;;;;;;3.38;1.00;;;;;;;19.58;nan;100468.25;5029826;28;20022;-72
2023/06/24 00:06:04;;;;;;;7.47;1.10;;;;;;;19.59;nan;100459.16;5036100;28;20426;-73
2023/06/24 00:08:34;;;;;;;3.83;1.30;;;;;;;19.60;nan;100456.19;5031265;28;20498;-73
2023/06/24 00:11:02;;;;;;;5.70;1.67;;;;;;;19.60;nan;100482.91;5040696;28;20048;-73
2023/06/24 00:13:28;;;;;;;3.15;1.73;;;;;;;19.53;nan;100467.22;5035230;28;20027;-72
2023/06/24 00:15:54;;;;;;;8.73;2.53;;;;;;;19.61;nan;100481.84;5033641;28;20486;-71
2023/06/24 00:18:19;;;;;;;7.55;2.20;;;;;;;19.61;nan;100476.50;5037002;28;20024;-71
2023/06/24 00:20:44;;;;;;;6.15;2.70;;;;;;;19.71;nan;100472.97;5034399;28;20428;-71
2023/06/24 00:23:15;;;;;;;9.75;2.70;;;;;;;19.72;nan;100480.66;5041906;28;20021;-72
2023/06/24 00:25:41;;;;;;;6.78;2.53;;;;;;;19.65;nan;100464.16;5037533;28;20498;-72
2023/06/24 00:28:06;;;;;;;9.75;2.30;;;;;;;19.66;nan;100460.41;5035927;28;20041;-72
2023/06/24 00:30:31;;;;;;;7.68;2.30;;;;;;;19.75;nan;100456.06;5039218;28;20096;-72
2023/06/24 00:32:57;;;;;;;14.65;2.85;;;;;;;19.81;nan;100456.00;5039431;28;20036;-72
2023/06/24 00:35:22;;;;;;;10.10;2.30;;;;;;;19.72;nan;100442.47;5041485;28;20061;-71
2023/06/24 00:37:47;;;;;;;5.25;1.98;;;;;;;19.83;nan;100448.50;5043898;28;20459;-72
2023/06/24 00:40:15;;;;;;;8.32;2.20;;;;;;;19.84;nan;100448.22;5039694;28;20032;-73
2023/06/24 00:42:42;;;;;;;9.38;2.38;;;;;;;19.77;nan;100445.88;5036804;28;20034;-72
2023/06/24 00:45:09;;;;;;;6.90;2.10;;;;;;;19.80;nan;100457.91;5039958;28;20135;-73
2023/06/24 00:47:35;;;;;;;9.98;2.47;;;;;;;19.82;nan;100462.94;5069077;28;20344;-72
2023/06/24 00:50:01;;;;;;;5.35;2.10;;;;;;;19.82;nan;100458.38;5041058;28;20024;-72
2023/06/24 00:52:26;;;;;;;8.05;1.98;;;;;;;19.79;nan;100458.97;5040560;28;20191;-73
2023/06/24 00:54:52;;;;;;;6.40;2.65;;;;;;;19.90;nan;100467.66;5053145;28;20071;-72
2023/06/24 00:57:23;;;;;;;6.22;1.80;;;;;;;19.87;nan;100469.03;5042691;28;20025;-72
2023/06/24 00:59:53;;;;;;;5.00;1.88;;;;;;;19.83;nan;100464.53;5039618;28;20040;-72
2023/06/24 01:02:20;;;;;;;10.82;1.83;;;;;;;19.89;nan;100482.09;5038770;28;20546;-71
2023/06/24 01:04:48;;;;;;;6.00;1.90;;;;;;;19.80;nan;100465.09;5036921;28;20152;-72
2023/06/24 01:07:14;;;;;;;9.75;2.10;;;;;;;19.86;nan;100486.13;5038424;28;20457;-71
2023/06/24 01:09:40;;;;;;;8.13;2.15;;;;;;;19.87;nan;100484.25;5036280;28;20041;-72
2023/06/24 01:12:06;;;;;;;5.97;1.98;;;;;;;19.92;nan;100486.88;5037288;28;20044;-72
2023/06/24 01:14:32;;;;;;;6.07;2.00;;;;;;;19.90;nan;100483.69;5046604;28;20134;-71
2023/06/24 01:17:24;;;;;;;9.80;2.47;;;;;;;19.81;nan;100478.19;5038098;28;20030;-72
2023/06/24 01:20:10;;;;;;;10.07;2.60;;;;;;;19.90;nan;100497.06;5046345;28;20078;-72
2023/06/24 01:22:58;;;;;;;6.00;1.80;;;;;;;19.87;nan;100493.09;5040035;28;20075;-72
2023/06/24 01:25:59;;;;;;;10.05;2.30;;;;;;;19.89;nan;100506.16;5037827;28;20029;-72
2023/06/24 01:29:14;;;;;;;7.55;2.22;;;;;;;19.87;nan;100519.00;5068922;28;20479;-73
2023/06/24 01:31:50;;;;;;;11.27;2.22;;;;;;;19.86;nan;100512.84;4989494;28;20047;-73
2023/06/24 01:34:34;;;;;;;6.57;2.72;;;;;;;19.89;nan;100525.66;4994364;28;20034;-71
2023/06/24 01:37:17;;;;;;;8.57;2.30;;;;;;;19.88;nan;100520.59;4990487;28;20096;-71
2023/06/24 01:40:10;;;;;;;7.93;2.30;;;;;;;19.86;nan;100525.44;4994206;28;20589;-73
2023/06/24 01:42:39;;;;;;;9.15;2.08;;;;;;;19.85;nan;100529.16;4956231;28;20038;-72
2023/06/24 01:45:07;;;;;;;9.80;2.55;;;;;;;19.92;nan;100543.81;4980245;28;20029;-71
2023/06/24 01:47:34;;;;;;;13.15;2.42;;;;;;;19.89;nan;100535.53;4994953;28;20041;-70
2023/06/24 01:50:03;;;;;;;9.23;2.20;;;;;;;19.89;nan;100527.53;4992947;28;20053;-70
2023/06/24 01:52:30;;;;;;;7.70;2.38;;;;;;;19.90;nan;100511.22;4979318;28;20137;-71
2023/06/24 01:54:58;;;;;;;7.18;2.70;;;;;;;19.97;nan;100502.88;4992037;28;20034;-70
2023/06/24 01:57:25;;;;;;;7.70;2.38;;;;;;;19.95;nan;100494.34;4976988;28;20050;-69
2023/06/24 01:59:54;;;;;;;15.05;3.60;;;;;;;19.81;nan;100485.41;4992121;28;20040;-71
2023/06/24 02:02:21;;;;;;;9.00;2.72;;;;;;;19.90;nan;100497.06;4993511;28;20042;-71
2023/06/24 02:04:49;;;;;;;7.20;2.33;;;;;;;19.76;nan;100489.72;4995781;28;20018;-71
2023/06/24 02:07:17;;;;;;;12.75;2.95;;;;;;;19.75;nan;100488.13;5004386;28;20095;-71
2023/06/24 02:09:44;;;;;;;7.85;2.67;;;;;;;19.86;nan;100490.69;5035221;28;20073;-72
2023/06/24 02:12:11;;;;;;;9.02;2.67;;;;;;;19.85;nan;100481.06;5037249;28;20029;-71
2023/06/24 02:14:38;;;;;;;20.63;3.28;;;;;;;19.89;nan;100490.91;5035438;28;20021;-71
2023/06/24 02:17:06;;;;;;;12.23;2.50;;;;;;;19.95;nan;100487.09;5037787;28;20059;-71
2023/06/24 02:19:32;;;;;;;10.68;2.97;;;;;;;19.89;nan;100474.88;5037913;28;20108;-70
2023/06/24 02:21:59;;;;;;;11.30;3.42;;;;;;;19.96;nan;100486.00;5036587;28;20021;-70
2023/06/24 02:24:27;;;;;;;13.50;2.90;;;;;;;19.98;nan;100488.41;5033229;28;20057;-71
2023/06/24 02:26:53;;;;;;;15.52;3.40;;;;;;;19.96;nan;100482.53;5052013;28;20021;-69
2023/06/24 02:29:20;;;;;;;8.00;3.13;;;;;;;20.01;nan;100482.47;5033897;28;20106;-70
2023/06/24 02:31:45;;;;;;;11.27;2.97;;;;;;;19.86;nan;100469.31;5038154;28;20016;-70
2023/06/24 02:34:10;;;;;;;10.52;3.10;;;;;;;19.98;nan;100491.88;5036102;28;20032;-70
2023/06/24 02:36:36;;;;;;;8.55;2.55;;;;;;;19.94;nan;100469.50;5032967;28;20031;-70
2023/06/24 02:39:01;;;;;;;13.43;3.13;;;;;;;20.02;nan;100485.97;5033922;28;20064;-69
2023/06/24 02:41:27;;;;;;;7.93;2.72;;;;;;;20.01;nan;100479.03;5034183;28;20021;-70
2023/06/24 02:43:52;;;;;;;12.02;3.10;;;;;;;19.97;nan;100481.47;5035924;28;20491;-70
2023/06/24 02:46:19;;;;;;;13.80;3.22;;;;;;;20.00;nan;100486.25;5033262;28;20021;-70
2023/06/24 02:48:45;;;;;;;9.88;3.17;;;;;;;19.97;nan;100495.63;5036469;28;20025;-70
2023/06/24 02:51:12;;;;;;;8.60;2.92;;;;;;;19.88;nan;100493.88;5035418;28;20017;-70
2023/06/24 02:53:39;;;;;;;12.57;3.20;;;;;;;19.95;nan;100513.03;5036783;28;20525;-71
2023/06/24 02:56:06;;;;;;;11.73;3.05;;;;;;;19.74;nan;100486.53;5034399;28;20498;-71
2023/06/24 02:58:32;;;;;;;10.13;2.60;;;;;;;19.73;nan;100466.25;5033335;28;20009;-70
2023/06/24 03:01:08;;;;;;;13.63;3.33;;;;;;;19.81;nan;100464.81;5037110;28;20033;-71
2023/06/24 03:03:34;;;;;;;10.45;2.78;;;;;;;19.84;nan;100466.13;5035075;28;20062;-72
2023/06/24 03:06:02;;;;;;;9.32;3.38;;;;;;;19.77;nan;100451.22;5031999;28;20013;-73
2023/06/24 03:08:28;;;;;;;14.07;3.40;;;;;;;19.70;nan;100445.41;5035795;28;20057;-72
2023/06/24 03:10:58;;;;;;;14.38;3.15;;;;;;;19.83;nan;100464.53;5035991;28;20083;-72
2023/06/24 03:13:24;;;;;;;13.80;3.30;;;;;;;19.79;nan;100458.16;5034846;28;20495;-72
2023/06/24 03:15:49;;;;;;;9.15;3.40;;;;;;;19.76;nan;100452.31;5037406;28;20096;-72
2023/06/24 03:18:16;;;;;;;8.77;3.13;;;;;;;19.73;nan;100438.75;5036856;28;20064;-72
2023/06/24 03:20:42;;;;;;;19.13;3.35;;;;;;;19.77;nan;100440.53;5036729;28;20166;-73
2023/06/24 03:23:08;;;;;;;12.98;3.17;;;;;;;19.71;nan;100422.97;5033744;28;20112;-72
2023/06/24 03:25:34;;;;;;;12.63;3.42;;;;;;;19.75;nan;100428.53;5032738;28;20504;-72
2023/06/24 03:28:07;;;;;;;9.38;3.40;;;;;;;19.79;nan;100434.91;5037869;28;20086;-71
2023/06/24 03:30:33;;;;;;;11.52;3.20;;;;;;;19.81;nan;100445.31;5033608;28;20027;-72
2023/06/24 03:32:58;;;;;;;14.00;3.42;;;;;;;19.79;nan;100442.94;5036912;28;20025;-72
2023/06/24 03:35:24;;;;;;;10.50;3.05;;;;;;;19.60;nan;100436.72;5034801;28;20479;-72
2023/06/24 03:37:50;;;;;;;12.85;3.13;;;;;;;19.54;nan;100441.31;5036319;28;20029;-72
2023/06/24 03:40:15;;;;;;;17.17;3.50;;;;;;;19.52;nan;100432.78;5034486;28;20716;-70
2023/06/24 03:42:40;;;;;;;13.43;3.60;;;;;;;19.48;nan;100427.22;5034868;28;20482;-75
2023/06/24 03:45:06;;;;;;;13.07;3.13;;;;;;;19.57;nan;100439.97;5035197;28;21291;-72
2023/06/24 03:47:32;;;;;;;10.45;3.05;;;;;;;19.61;nan;100427.59;5034008;28;20014;-72
2023/06/24 03:49:57;;;;;;;10.00;3.20;;;;;;;19.65;nan;100420.63;5034166;28;20021;-71
2023/06/24 03:52:24;;;;;;;11.52;3.13;;;;;;;19.67;nan;100423.81;5066023;28;20479;-72
2023/06/24 03:54:49;;;;;;;14.00;3.75;;;;;;;19.74;nan;100430.41;5035422;28;20154;-72
2023/06/24 03:57:15;;;;;;;17.30;3.67;;;;;;;19.77;nan;100432.50;5035701;28;20426;-71
2023/06/24 03:59:40;;;;;;;9.40;3.10;;;;;;;19.77;nan;100424.50;5031763;28;20029;-71
2023/06/24 04:02:09;;;;;;;7.43;3.28;;;;;;;19.75;nan;100420.53;5051233;28;20025;-72
2023/06/24 04:04:37;;;;;;;11.88;4.13;;;;;;;19.82;nan;100422.84;5035463;28;20017;-73
2023/06/24 04:07:05;;;;;;;11.85;3.58;;;;;;;19.74;nan;100422.41;5037594;28;20029;-72
2023/06/24 04:09:33;;;;;;;15.70;3.85;;;;;;;19.69;nan;100429.69;5035847;28;20050;-71
2023/06/24 04:11:58;;;;;;;8.38;3.42;;;;;;;19.80;nan;100439.19;5033600;28;20021;-74
2023/06/24 04:14:28;;;;;;;9.63;3.10;;;;;;;19.77;nan;100437.84;5067642;28;20467;-74
2023/06/24 04:16:54;;;;;;;7.43;2.78;;;;;;;19.80;nan;100439.19;5036688;28;20059;-73
2023/06/24 04:19:19;;;;;;;9.02;2.97;;;;;;;19.85;nan;100443.66;5033599;28;20534;-74
2023/06/24 04:21:44;;;;;;;8.75;3.47;;;;;;;19.87;nan;100442.31;5037356;28;20479;-74
2023/06/24 04:24:10;;;;;;;9.35;3.20;;;;;;;19.99;nan;100457.91;5037672;28;20471;-74
2023/06/24 04:26:35;;;;;;;13.48;3.33;;;;;;;20.09;nan;100467.72;5035891;28;20024;-72
2023/06/24 04:29:01;;;;;;;10.30;3.70;;;;;;;20.21;nan;100475.28;5064445;28;20128;-72
2023/06/24 04:31:27;;;;;;;11.90;3.90;;;;;;;20.34;nan;100480.72;5065546;28;20014;-72
2023/06/24 04:33:53;;;;;;;9.85;3.30;;;;;;;20.45;nan;100475.22;5031410;28;20021;-72
2023/06/24 04:36:18;;;;;;;8.48;3.65;;;;;;;20.53;nan;100474.59;5036092;28;20021;-73
2023/06/24 04:38:44;;;;;;;12.77;3.08;;;;;;;20.43;nan;100448.78;5037318;28;20056;-73
2023/06/24 04:41:09;;;;;;;13.52;3.30;;;;;;;20.71;nan;100481.03;5034749;28;20052;-72
2023/06/24 04:43:35;;;;;;;10.18;3.97;;;;;;;20.76;nan;100478.31;5033858;28;20025;-72
2023/06/24 04:46:01;;;;;;;8.90;3.15;;;;;;;20.81;nan;100476.34;5033992;28;20041;-73
2023/06/24 04:48:26;;;;;;;12.48;4.25;;;;;;;20.89;nan;100480.25;5033792;28;20063;-73
2023/06/24 04:50:53;;;;;;;12.10;3.15;;;;;;;20.92;nan;100478.84;5034429;28;20022;-71
2023/06/24 04:53:18;;;;;;;12.48;3.50;;;;;;;20.93;nan;100481.25;5034583;28;20023;-71
2023/06/24 04:55:44;;;;;;;18.45;3.50;;;;;;;20.91;nan;100482.63;5036817;28;20080;-72
2023/06/24 04:58:09;;;;;;;14.05;3.00;;;;;;;21.01;nan;100495.84;5035578;28;20398;-71
2023/06/24 05:00:35;;;;;;;11.65;3.60;;;;;;;20.95;nan;100487.13;5036827;28;20037;-72
2023/06/24 05:03:00;;;;;;;8.27;2.90;;;;;;;21.05;nan;100504.91;5033664;28;20483;-72
2023/06/24 05:05:25;;;;;;;12.50;3.35;;;;;;;21.15;nan;100515.44;5034259;28;20013;-73
2023/06/24 05:07:51;;;;;;;11.02;3.40;;;;;;;21.11;nan;100509.06;5038915;28;20064;-73
2023/06/24 05:10:16;;;;;;;11.50;3.55;;;;;;;21.03;nan;100499.81;5044312;28;20045;-73
2023/06/24 05:12:41;;;;;;;18.85;3.63;;;;;;;21.05;nan;100518.28;5040230;28;20064;-73
2023/06/24 05:15:07;;;;;;;13.50;3.72;;;;;;;21.15;nan;100523.47;5046015;28;20021;-72
2023/06/24 05:17:33;;;;;;;9.73;2.97;;;;;;;21.19;nan;100531.69;5037749;28;20041;-72
2023/06/24 05:19:58;;;;;;;13.20;4.15;;;;;;;21.17;nan;100528.53;5036533;28;20028;-73
2023/06/24 05:22:24;;;;;;;13.95;3.38;;;;;;;21.14;nan;100529.09;5038519;28;20617;-72
2023/06/24 05:24:49;;;;;;;11.88;3.33;;;;;;;21.23;nan;100541.53;5037429;28;20428;-71
2023/06/24 05:27:15;;;;;;;14.60;3.40;;;;;;;21.38;nan;100547.72;5041106;28;20068;-72
2023/06/24 05:29:40;;;;;;;11.25;3.03;;;;;;;21.48;nan;100557.50;5037439;28;20033;-73
2023/06/24 05:32:06;;;;;;;11.10;3.65;;;;;;;21.39;nan;100554.69;5040795;28;20037;-72
2023/06/24 05:34:31;;;;;;;10.80;3.10;;;;;;;21.49;nan;100557.22;5036990;28;20037;-73
2023/06/24 05:36:57;;;;;;;9.32;2.60;;;;;;;21.57;nan;100553.06;5038299;28;20032;-73
2023/06/24 05:39:25;;;;;;;13.88;3.25;;;;;;;21.49;nan;100541.16;5037308;28;20049;-72
2023/06/24 05:41:50;;;;;;;10.30;2.63;;;;;;;21.66;nan;100559.34;5037892;28;20479;-71
2023/06/24 05:44:17;;;;;;;19.05;3.33;;;;;;;21.65;nan;100563.13;5037151;28;20078;-72
2023/06/24 05:46:44;;;;;;;12.73;3.85;;;;;;;21.69;nan;100582.88;5038541;28;20021;-72
2023/06/24 05:49:09;;;;;;;9.52;2.92;;;;;;;21.70;nan;100579.13;5039070;28;20072;-71
2023/06/24 05:51:34;;;;;;;8.98;2.90;;;;;;;21.72;nan;100571.56;5034138;28;20025;-72
2023/06/24 05:54:00;;;;;;;7.25;2.80;;;;;;;21.85;nan;100581.50;5039834;28;20464;-72
2023/06/24 05:56:26;;;;;;;11.50;3.13;;;;;;;21.90;nan;100571.78;5033580;28;20009;-71
2023/06/24 05:58:51;;;;;;;12.00;3.00;;;;;;;22.00;nan;100582.31;5038442;28;20041;-73
2023/06/24 06:01:16;;;;;;;9.20;3.00;;;;;;;21.96;nan;100584.03;5036422;28;20490;-72
2023/06/24 06:03:42;;;;;;;8.45;2.60;;;;;;;21.93;nan;100592.63;5036353;28;20026;-75
2023/06/24 06:06:07;;;;;;;10.55;2.70;;;;;;;22.06;nan;100614.13;5037022;28;20108;-72
2023/06/24 06:08:35;;;;;;;13.05;5.38;;;;;;;22.13;nan;100613.72;5036461;28;20017;-74
2023/06/24 06:11:03;;;;;;;24.42;9.38;;;;;;;21.99;nan;100594.94;5036182;28;20044;-71
2023/06/24 06:13:30;;;;;;;14.93;3.15;;;;;;;22.17;nan;100625.47;5037141;28;20017;-73
2023/06/24 06:15:56;;;;;;;10.48;3.30;;;;;;;22.16;nan;100633.78;5036189;28;20025;-72
2023/06/24 06:18:21;;;;;;;8.00;3.05;;;;;;;22.09;nan;100624.25;5044208;28;20112;-72
2023/06/24 06:20:46;;;;;;;16.15;3.70;;;;;;;22.14;nan;100615.31;5039466;28;20104;-71
2023/06/24 06:23:12;;;;;;;11.65;3.10;;;;;;;22.17;nan;100616.59;5042806;28;20021;-71
2023/06/24 06:25:38;;;;;;;8.65;3.15;;;;;;;22.21;nan;100620.31;5045426;28;20021;-73
2023/06/24 06:28:03;;;;;;;10.48;3.20;;;;;;;22.26;nan;100629.06;5055423;28;20028;-71
2023/06/24 06:30:29;;;;;;;6.88;3.20;;;;;;;22.17;nan;100621.97;5039036;28;20070;-78
2023/06/24 06:32:54;;;;;;;8.57;3.00;;;;;;;22.12;nan;100625.53;5034366;28;20033;-73
2023/06/24 06:35:20;;;;;;;9.65;2.92;;;;;;;22.26;nan;100650.50;5038516;28;20021;-71
2023/06/24 06:37:51;;;;;;;8.82;3.10;;;;;;;22.32;nan;100647.75;5039782;28;20096;-76
2023/06/24 06:40:17;;;;;;;8.75;3.28;;;;;;;22.43;nan;100649.91;5036761;28;20104;-72
2023/06/24 06:42:42;;;;;;;11.90;3.25;;;;;;;22.44;nan;100651.53;5041149;28;20216;-72
2023/06/24 06:45:08;;;;;;;10.55;2.78;;;;;;;22.40;nan;100653.22;5036557;28;20553;-72
2023/06/24 06:47:33;;;;;;;8.73;3.15;;;;;;;22.58;nan;100653.41;5037265;28;20039;-72
2023/06/24 06:49:59;;;;;;;11.10;3.10;;;;;;;22.60;nan;100654.72;5036440;28;20383;-71
2023/06/24 06:52:24;;;;;;;10.18;3.33;;;;;;;22.63;nan;100658.69;5066079;28;20113;-70
2023/06/24 06:54:50;;;;;;;11.88;3.13;;;;;;;22.50;nan;100660.25;5037783;28;20387;-71
2023/06/24 06:57:16;;;;;;;17.85;3.78;;;;;;;22.42;nan;100660.97;5034934;28;20558;-72
2023/06/24 06:59:41;;;;;;;6.85;3.05;;;;;;;22.41;nan;100662.03;5036230;28;20029;-72
2023/06/24 07:02:07;;;;;;;14.48;3.53;;;;;;;22.33;nan;100668.91;5039582;28;20029;-71
2023/06/24 07:04:32;;;;;;;9.63;3.50;;;;;;;22.25;nan;100658.88;5031947;28;20029;-70
2023/06/24 07:06:58;;;;;;;7.90;3.00;;;;;;;22.29;nan;100668.72;5034226;28;20029;-72
2023/06/24 07:09:23;;;;;;;9.98;2.95;;;;;;;22.25;nan;100661.56;5037268;28;20100;-70
2023/06/24 07:11:48;;;;;;;8.18;3.33;;;;;;;22.32;nan;100659.28;5043771;28;20132;-70
2023/06/24 07:14:14;;;;;;;8.23;3.00;;;;;;;22.38;nan;100663.44;5034337;28;20028;-73
2023/06/24 07:16:39;;;;;;;9.45;3.13;;;;;;;22.43;nan;100668.69;5039018;28;20045;-75
2023/06/24 07:19:05;;;;;;;9.43;3.20;;;;;;;22.42;nan;100677.06;5034979;28;20433;-77
2023/06/24 07:21:30;;;;;;;7.82;3.20;;;;;;;22.35;nan;100671.31;5041280;28;20028;-77
2023/06/24 07:23:55;;;;;;;9.88;3.13;;;;;;;22.34;nan;100683.13;5034496;28;20039;-77
2023/06/24 07:26:22;;;;;;;14.55;3.85;;;;;;;22.45;nan;100706.00;5035696;28;20091;-76
2023/06/24 07:28:47;;;;;;;9.30;3.20;;;;;;;22.47;nan;100698.44;5034621;28;20526;-77
2023/06/24 07:31:12;;;;;;;11.43;3.10;;;;;;;22.34;nan;100686.63;5035083;28;20014;-78
2023/06/24 07:33:38;;;;;;;9.60;3.47;;;;;;;22.39;nan;100691.88;5067270;28;20025;-74
2023/06/24 07:36:04;;;;;;;10.07;3.38;;;;;;;22.28;nan;100696.63;5037237;28;20029;-75
2023/06/24 07:38:29;;;;;;;10.15;3.30;;;;;;;22.25;nan;100686.50;5037065;28;20031;-73
2023/06/24 07:40:55;;;;;;;8.63;2.95;;;;;;;22.23;nan;100702.09;5034080;28;20029;-73
2023/06/24 07:43:21;;;;;;;9.30;3.22;;;;;;;22.23;nan;100698.63;5037371;28;20108;-73
2023/06/24 07:45:46;;;;;;;8.40;2.88;;;;;;;22.25;nan;100696.44;5034286;28;20022;-72
2023/06/24 07:48:11;;;;;;;9.20;3.20;;;;;;;22.26;nan;100693.44;5035441;28;20566;-72
2023/06/24 07:50:38;;;;;;;10.30;2.80;;;;;;;22.33;nan;100698.41;5034866;28;20028;-73
2023/06/24 07:53:04;;;;;;;10.95;3.17;;;;;;;22.33;nan;100703.78;5035264;28;20036;-73
2023/06/24 07:55:29;;;;;;;9.32;3.17;;;;;;;22.30;nan;100701.69;5033468;28;20028;-72
2023/06/24 07:57:55;;;;;;;7.68;3.03;;;;;;;22.29;nan;100711.66;5036273;28;20071;-73
2023/06/24 08:00:20;;;;;;;7.10;2.95;;;;;;;22.30;nan;100704.38;5034515;28;20035;-73
2023/06/24 08:02:45;;;;;;;11.55;3.30;;;;;;;22.35;nan;100712.34;5041997;28;20025;-72
2023/06/24 08:05:11;;;;;;;7.13;2.65;;;;;;;22.39;nan;100712.56;5033356;28;20021;-73
2023/06/24 08:07:37;;;;;;;6.80;2.80;;;;;;;22.41;nan;100716.53;5032503;28;20097;-73
2023/06/24 08:10:03;;;;;;;5.78;2.63;;;;;;;22.42;nan;100706.59;5031337;28;20068;-73
2023/06/24 08:12:28;;;;;;;6.50;3.10;;;;;;;22.37;nan;100694.06;5039037;28;21102;-72
2023/06/24 08:14:54;;;;;;;12.73;2.92;;;;;;;22.48;nan;100711.56;5036774;28;20107;-72
2023/06/24 08:17:19;;;;;;;7.55;3.13;;;;;;;22.26;nan;100677.34;5037409;28;20054;-72
2023/06/24 08:19:44;;;;;;;6.47;2.90;;;;;;;22.51;nan;100719.03;5035271;28;20037;-72
2023/06/24 08:22:10;;;;;;;9.50;2.88;;;;;;;22.54;nan;100720.31;5038061;28;20025;-72
2023/06/24 08:24:36;;;;;;;9.63;3.30;;;;;;;22.63;nan;100729.28;5035034;28;20112;-72
2023/06/24 08:27:02;;;;;;;9.82;2.92;;;;;;;22.63;nan;100726.59;5030729;28;20025;-72
2023/06/24 08:29:27;;;;;;;12.60;3.63;;;;;;;22.70;nan;100739.63;5034273;28;20044;-73
2023/06/24 08:31:52;;;;;;;6.72;3.17;;;;;;;;;;5034322;28;20017;-73
2023/06/24 08:34:18;;;;;;;10.00;3.07;;;;;;;22.69;nan;100735.31;5035482;28;20025;-72
2023/06/24 08:36:43;;;;;;;7.15;3.30;;;;;;;22.73;nan;100731.75;5033385;28;20040;-72
2023/06/24 08:39:08;;;;;;;9.00;3.28;;;;;;;22.77;nan;100739.19;5035142;28;20024;-72
2023/06/24 08:41:34;;;;;;;13.93;3.30;;;;;;;22.84;nan;100739.59;5034181;28;20459;-75
2023/06/24 08:43:59;;;;;;;6.05;2.92;;;;;;;22.79;nan;100720.91;5036508;28;20033;-72
2023/06/24 08:46:26;;;;;;;10.90;3.10;;;;;;;22.94;nan;100734.84;5040437;28;20035;-73
2023/06/24 08:49:02;;;;;;;9.35;2.80;;;;;;;23.01;nan;100723.72;5036965;28;20474;-74
2023/06/24 08:51:31;;;;;;;5.82;2.90;;;;;;;23.04;nan;100725.78;5036730;28;20021;-74
2023/06/24 08:53:58;;;;;;;9.25;2.90;;;;;;;23.07;nan;100719.81;5037814;28;20029;-68
2023/06/24 08:56:24;;;;;;;8.50;2.97;;;;;;;23.10;nan;100708.47;5038103;28;20021;-70
2023/06/24 08:58:50;;;;;;;17.73;4.38;;;;;;;23.18;nan;100723.09;5038841;28;20494;-70
2023/06/24 09:01:17;;;;;;;9.40;3.30;;;;;;;23.26;nan;100729.66;5037140;28;20025;-72
2023/06/24 09:03:42;;;;;;;8.57;3.20;;;;;;;23.26;nan;100729.66;5034393;28;20028;-71
2023/06/24 09:06:07;;;;;;;5.57;2.83;;;;;;;23.23;nan;100719.50;5038623;28;20013;-73
2023/06/24 09:08:35;;;;;;;6.50;2.90;;;;;;;23.32;nan;100728.41;5046295;28;20103;-72
2023/06/24 09:11:01;;;;;;;6.35;3.05;;;;;;;23.16;nan;100703.78;5038221;28;20048;-74
2023/06/24 09:13:44;;;;;;;11.30;3.35;;;;;;;23.33;nan;100730.81;5040988;28;20745;-74
2023/06/24 09:16:14;;;;;;;8.25;2.95;;;;;;;23.40;nan;100729.63;5042316;28;20052;-73
2023/06/24 09:18:39;;;;;;;9.85;3.42;;;;;;;23.34;nan;100715.47;5036451;28;20009;-73
2023/06/24 09:21:05;;;;;;;7.70;3.08;;;;;;;23.24;nan;100710.34;5036009;28;20044;-74
2023/06/24 09:23:35;;;;;;;8.30;3.35;;;;;;;23.38;nan;100721.84;5036809;28;20523;-75
2023/06/24 09:26:01;;;;;;;10.70;3.50;;;;;;;23.49;nan;100731.28;5043042;28;20045;-73
2023/06/24 09:28:27;;;;;;;7.90;3.53;;;;;;;23.49;nan;100723.22;5038758;28;20025;-74
2023/06/24 09:31:09;;;;;;;11.93;3.40;;;;;;;23.59;nan;100729.47;5038689;28;20061;-73
2023/06/24 09:33:35;;;;;;;7.03;3.38;;;;;;;23.59;nan;100722.19;5039127;28;20013;-73
2023/06/24 09:36:04;;;;;;;8.23;3.05;;;;;;;23.68;nan;100731.13;5037714;28;20100;-73
2023/06/24 09:38:35;;;;;;;10.13;3.00;;;;;;;23.75;nan;100730.69;5042821;28;20100;-74
2023/06/24 09:41:04;;;;;;;7.53;3.35;;;;;;;23.77;nan;100734.66;5036881;28;20029;-74
2023/06/24 09:43:33;;;;;;;9.52;3.00;;;;;;;23.87;nan;100732.84;5036049;28;20021;-74
2023/06/24 09:46:00;;;;;;;7.65;3.40;;;;;;;23.88;nan;100724.47;5036049;28;20475;-74
2023/06/24 09:48:26;;;;;;;9.95;3.15;;;;;;;23.85;nan;100718.91;5034741;28;20046;-73
2023/06/24 09:50:51;;;;;;;7.63;2.85;;;;;;;23.94;nan;100730.50;5038082;28;20040;-74
2023/06/24 09:53:18;;;;;;;11.45;3.20;;;;;;;23.99;nan;100720.44;5032854;28;20467;-74
2023/06/24 09:55:46;;;;;;;13.15;3.28;;;;;;;24.14;nan;100729.22;5038608;28;20036;-74
2023/06/24 09:58:16;;;;;;;9.70;2.80;;;;;;;24.12;nan;100717.97;5034225;28;20056;-74
2023/06/24 10:00:42;;;;;;;6.22;3.38;;;;;;;24.17;nan;100713.25;5046163;28;20304;-74
2023/06/24 10:03:10;;;;;;;6.93;3.00;;;;;;;24.29;nan;100722.66;5033865;28;20014;-73
2023/06/24 10:05:35;;;;;;;9.13;3.37;;;;;;;24.35;nan;100729.47;5034314;28;20017;-73
2023/06/24 10:08:05;;;;;;;8.40;2.90;;;;;;;24.38;nan;100726.97;5037448;28;20625;-73
2023/06/24 10:10:31;;;;;;;6.95;2.95;;;;;;;24.40;nan;100726.69;5035694;28;20041;-73
2023/06/24 10:12:57;;;;;;;10.73;3.00;;;;;;;24.40;nan;100718.59;5037389;28;20562;-73
2023/06/24 10:15:23;;;;;;;9.60;2.80;;;;;;;24.46;nan;100721.94;5038586;28;20041;-73
2023/06/24 10:17:50;;;;;;;7.57;3.15;;;;;;;24.44;nan;100708.78;5036326;28;20022;-73
2023/06/24 10:20:25;;;;;;;12.75;3.00;;;;;;;24.50;nan;100712.19;5037014;28;20503;-73
2023/06/24 10:22:51;;;;;;;8.07;2.80;;;;;;;24.50;nan;100702.19;5033275;28;20029;-73
2023/06/24 10:25:17;;;;;;;9.20;3.50;;;;;;;24.59;nan;100702.22;5040600;28;20042;-73
2023/06/24 10:27:43;;;;;;;9.20;3.10;;;;;;;24.56;nan;100694.75;5033795;28;20104;-73
2023/06/24 10:30:17;;;;;;;8.15;2.95;;;;;;;24.62;nan;100691.63;5037215;28;20104;-75
2023/06/24 10:32:43;;;;;;;11.55;3.25;;;;;;;24.67;nan;100688.00;5036972;28;20024;-75
2023/06/24 10:35:23;;;;;;;6.43;2.83;;;;;;;24.77;nan;100690.38;5045875;28;20029;-76
2023/06/24 10:38:00;;;;;;;12.52;3.63;;;;;;;24.76;nan;100682.63;5036048;28;20033;-76
2023/06/24 10:40:39;;;;;;;9.52;2.97;;;;;;;24.75;nan;100681.81;5040552;28;20024;-76
2023/06/24 10:43:25;;;;;;;7.97;3.15;;;;;;;24.81;nan;100680.59;5065985;28;20037;-75
2023/06/24 10:45:56;;;;;;;10.05;3.05;;;;;;;24.80;nan;100675.50;5034056;28;20021;-76
2023/06/24 10:48:22;;;;;;;8.18;3.00;;;;;;;24.84;nan;100666.47;5033883;28;20017;-77
2023/06/24 10:50:49;;;;;;;9.88;3.78;;;;;;;24.77;nan;100659.97;5036345;28;20163;-76
2023/06/24 10:53:15;;;;;;;9.77;3.60;;;;;;;24.86;nan;100660.78;5035544;28;20575;-76
2023/06/24 10:55:41;;;;;;;6.95;3.20;;;;;;;24.86;nan;100655.41;5034580;28;20083;-77
2023/06/24 10:58:08;;;;;;;7.70;2.90;;;;;;;24.91;nan;100662.53;5035599;28;20020;-77
2023/06/24 11:00:34;;;;;;;9.07;3.20;;;;;;;24.98;nan;100663.66;5038846;28;21048;-75
2023/06/24 11:03:18;;;;;;;10.68;3.20;;;;;;;24.91;nan;100652.56;5040262;28;20124;-74
2023/06/24 11:05:45;;;;;;;11.15;3.28;;;;;;;25.03;nan;100670.78;5069677;28;20013;-75
2023/06/24 11:08:11;;;;;;;11.18;3.80;;;;;;;25.19;nan;100687.31;5031700;28;20104;-74
2023/06/24 11:10:44;;;;;;;9.15;3.28;;;;;;;25.16;nan;100671.75;5039544;28;20048;-74
2023/06/24 11:13:10;;;;;;;10.10;3.70;;;;;;;25.15;nan;100678.25;5031261;28;20401;-74
2023/06/24 11:15:35;;;;;;;9.55;3.97;;;;;;;25.17;nan;100684.94;5037290;28;20043;-73
2023/06/24 11:18:04;;;;;;;10.32;3.38;;;;;;;25.19;nan;100692.72;5034470;28;20025;-73
2023/06/24 11:20:29;;;;;;;12.27;3.60;;;;;;;25.19;nan;100695.41;5037739;28;20029;-74
2023/06/24 11:22:55;;;;;;;11.73;3.78;;;;;;;25.14;nan;100688.25;5032891;28;20122;-74
2023/06/24 11:25:21;;;;;;;10.07;3.92;;;;;;;25.14;nan;100685.56;5035466;28;20732;-74
2023/06/24 11:27:47;;;;;;;10.20;3.40;;;;;;;25.22;nan;100687.47;5034463;28;20560;-74
2023/06/24 11:30:13;;;;;;;5.57;3.17;;;;;;;25.19;nan;100676.53;5034210;28;20124;-74
2023/06/24 11:32:40;;;;;;;7.53;3.38;;;;;;;25.15;nan;100662.88;5036770;28;20021;-76
2023/06/24 11:35:08;;;;;;;7.63;3.40;;;;;;;25.30;nan;100683.19;5038759;28;20578;-76
2023/06/24 11:37:34;;;;;;;7.45;3.15;;;;;;;25.30;nan;100680.50;5035442;28;20021;-76
2023/06/24 11:40:07;;;;;;;9.27;3.83;;;;;;;25.35;nan;100676.84;5035348;28;20041;-76